Rockville, MD (20851)

5:32 PM EDT on August 22, 2014 (GMT -0400)
Twinbrook | Change Station
CLOSE
Current Station
Personal Weather Station
Location: Rockville, MD
Elevation: 377 ft
Nearby Weather Stations

Elev 377 ft 39.08 °N, 77.12 °W | Updated 3 seconds ago

Overcast
Overcast
74.3 °F
Feels Like 72 °F
N
0.0
Wind Variable Wind from SE
Gusts 0.0 mph

Today
High -- | Low -- °F
--% Chance of Precip.
Yesterday
High -- | Low -- °F
Precip. -- in
6:28 AM 7:53 PM
Waning Crescent, 6% visible
Pressure 30.01 in
Visibility 4.0 miles
Clouds Overcast 4900 ft
Heat Index 72 °F
Dew Point 72 °F
Humidity 94%
Rainfall 0.20 in
Snow Depth Not available.
UV 1 out of 12
Pollen 8.60 out of 12
Air Quality Not available.
Flu Activity Not available.
METAR KGAI 222115Z AUTO 14005KT 4SM OVC049 23/21 A3001 RMK AO1

More Conditions Fewer Conditions

Pressure 30.01 in
Visibility 4.0 miles
Clouds Overcast 4900 ft
Heat Index 72 °F
Dew Point 72 °F
Humidity 94%
Rainfall 0.20 in
Snow Depth Not available.
UV 1 out of 12
Pollen 8.60 out of 12
Air Quality Not available.
Flu Activity Not available.
METAR KGAI 222115Z AUTO 14005KT 4SM OVC049 23/21 A3001 RMK AO1

More Conditions Fewer Conditions

10-Day Weather Forecast

Almanac

Astronomy

Aug. 22, 2014 Rise Set
Actual Time 6:28 AM EDT 7:53 PM EDT
Civil Twilight 6:00 AM EDT 8:21 PM EDT
Nautical Twilight 5:26 AM EDT 8:55 PM EDT
Astronomical Twilight 4:50 AM EDT 9:30 PM EDT
Moon 3:49 AM EDT 6:00 PM EDT
Length of Visible Light 14h 21m
Length of Day
13h 25m
Tomorrow will be 2m 20s shorter.
Waning Crescent, 6% of the Moon is Illuminated
Today
Waning Crescent
Aug 25
New
Sep 2
First Quarter
Sep 8
Full
Sep 15
Last Quarter

Today's Extremes

State Highs State Lows

Community

WunderPhotos

Upload Photos

1,746,259 photos uploaded!

Nearby

Snow Depth

Station Depth Elevation
No new snow has been reported.

Earthquake Activity

City Distance Mag. Time & Date
No recent earthquake activity has been reported nearby.
Minimum magnitude displayed is 2.5.

Coastal Water Temperatures

Place Temperature
Washington, DC 79.0 °F
Baltimore, MD 82.0 °F
Solomons Island, MD 80.1 °F

Nearby Weather Stations